createdAt,value
2024-02-29T00:00:22.822Z,4.83
2024-02-29T00:02:50.989Z,4.10
2024-02-29T00:05:21.926Z,5.27
2024-02-29T00:07:49.914Z,4.90
2024-02-29T00:10:18.117Z,5.30
2024-02-29T00:12:46.114Z,4.63
2024-02-29T00:15:14.207Z,4.77
2024-02-29T00:17:43.637Z,4.43
2024-02-29T00:20:12.623Z,5.20
2024-02-29T00:22:43.016Z,5.10
2024-02-29T00:25:11.343Z,5.20
2024-02-29T00:27:39.286Z,4.00
2024-02-29T00:30:08.966Z,5.43
2024-02-29T00:32:37.092Z,4.80
2024-02-29T00:35:07.356Z,5.27
2024-02-29T00:37:35.680Z,4.63
2024-02-29T00:40:03.785Z,5.83
2024-02-29T00:42:32.707Z,4.67
2024-02-29T00:45:00.970Z,3.70
2024-02-29T00:47:29.132Z,4.70
2024-02-29T00:49:57.004Z,4.53
2024-02-29T00:52:26.434Z,4.77
2024-02-29T00:54:54.691Z,4.50
2024-02-29T00:57:22.812Z,4.13
2024-02-29T00:59:50.815Z,4.03
2024-02-29T01:02:21.037Z,4.20
2024-02-29T01:04:48.966Z,3.33
2024-02-29T01:07:17.078Z,3.80
2024-02-29T01:09:46.565Z,4.50
2024-02-29T01:12:14.792Z,4.03
2024-02-29T01:14:42.887Z,3.80
2024-02-29T01:17:11.740Z,4.03
2024-02-29T01:19:40.666Z,3.63
2024-02-29T01:22:08.941Z,3.60
2024-02-29T01:24:37.479Z,4.30
2024-02-29T01:27:07.240Z,3.77
2024-02-29T01:29:35.206Z,4.00
2024-02-29T01:32:12.091Z,4.37
2024-02-29T01:34:46.556Z,4.30
2024-02-29T01:37:14.836Z,3.50
2024-02-29T01:39:44.917Z,4.80
2024-02-29T01:42:14.492Z,4.23
2024-02-29T01:44:53.732Z,4.20
2024-02-29T01:47:25.546Z,3.87
2024-02-29T01:49:59.008Z,3.70
2024-02-29T01:52:30.803Z,3.77
2024-02-29T01:54:59.772Z,4.13
2024-02-29T01:57:30.099Z,3.57
2024-02-29T01:59:58.162Z,3.57
2024-02-29T02:02:26.410Z,4.23
2024-02-29T02:05:00.457Z,3.63
2024-02-29T02:07:28.868Z,4.07
2024-02-29T02:09:57.675Z,3.53
2024-02-29T02:12:25.836Z,4.00
2024-02-29T02:14:57.659Z,3.20
2024-02-29T02:17:25.760Z,3.70
2024-02-29T02:19:54.867Z,4.03
2024-02-29T02:22:28.424Z,3.73
2024-02-29T02:24:56.755Z,3.73
2024-02-29T02:27:24.755Z,3.70
2024-02-29T02:29:53.349Z,4.40
2024-02-29T02:32:23.572Z,3.97
2024-02-29T02:34:51.529Z,3.40
2024-02-29T02:37:21.596Z,3.67
2024-02-29T02:39:53.414Z,3.37
2024-02-29T02:42:21.337Z,3.60
2024-02-29T02:44:49.496Z,3.80
2024-02-29T02:47:17.685Z,4.03
2024-02-29T02:49:45.708Z,4.73
2024-02-29T02:52:16.183Z,4.77
2024-02-29T02:54:44.157Z,4.60
2024-02-29T02:57:13.786Z,4.90
2024-02-29T02:59:42.185Z,4.20
2024-02-29T03:02:10.255Z,4.23
2024-02-29T03:04:40.806Z,4.10
2024-02-29T03:07:08.740Z,3.90
2024-02-29T03:09:39.638Z,4.40
2024-02-29T03:12:10.063Z,3.30
2024-02-29T03:14:41.885Z,4.17
2024-02-29T03:17:10.826Z,3.83
2024-02-29T03:19:39.029Z,6.60
2024-02-29T03:22:07.414Z,4.20
2024-02-29T03:24:40.775Z,3.70
2024-02-29T03:27:08.831Z,3.83
2024-02-29T03:29:38.816Z,3.47
2024-02-29T03:32:08.414Z,3.83
2024-02-29T03:34:36.804Z,3.77
2024-02-29T03:37:05.018Z,4.83
2024-02-29T03:39:33.893Z,4.50
2024-02-29T03:42:01.745Z,4.20
2024-02-29T03:44:29.891Z,3.33
2024-02-29T03:46:57.909Z,4.30
2024-02-29T03:49:27.578Z,4.03
2024-02-29T03:51:55.716Z,3.87
2024-02-29T03:54:23.796Z,3.80
2024-02-29T03:56:52.416Z,3.30
2024-02-29T03:59:20.421Z,3.63
2024-02-29T04:01:50.068Z,3.53
2024-02-29T04:04:19.302Z,3.97
2024-02-29T04:06:48.822Z,4.07
2024-02-29T04:09:16.922Z,4.00
2024-02-29T04:11:45.129Z,4.03
2024-02-29T04:14:13.155Z,4.67
2024-02-29T04:16:41.101Z,4.83
2024-02-29T04:19:10.637Z,4.37
2024-02-29T04:21:44.923Z,4.67
2024-02-29T04:24:14.582Z,4.23
2024-02-29T04:26:42.451Z,4.43
2024-02-29T04:29:10.915Z,3.90
2024-02-29T04:31:40.924Z,4.00
2024-02-29T04:34:09.358Z,4.00
2024-02-29T04:36:38.517Z,4.07
2024-02-29T04:39:07.019Z,4.30
2024-02-29T04:41:36.332Z,3.60
2024-02-29T04:44:05.941Z,3.77
2024-02-29T04:46:34.153Z,3.97
2024-02-29T04:49:02.188Z,4.17
2024-02-29T04:51:30.281Z,3.30
2024-02-29T04:54:00.139Z,3.93
2024-02-29T04:56:28.614Z,4.13
2024-02-29T04:58:58.141Z,3.50
2024-02-29T05:01:26.287Z,3.83
2024-02-29T05:03:55.391Z,3.90
2024-02-29T05:06:25.520Z,4.27
2024-02-29T05:08:53.750Z,4.00
2024-02-29T05:11:21.790Z,4.30
2024-02-29T05:13:50.425Z,3.50
2024-02-29T05:16:21.871Z,4.20
2024-02-29T05:18:49.900Z,4.30
2024-02-29T05:21:17.810Z,5.10
2024-02-29T05:23:45.886Z,4.37
2024-02-29T05:26:13.961Z,5.07
2024-02-29T05:28:42.027Z,4.40
2024-02-29T05:31:10.328Z,5.43
2024-02-29T05:33:42.464Z,4.33
2024-02-29T05:36:11.800Z,4.30
2024-02-29T05:38:39.803Z,4.30
2024-02-29T05:41:08.238Z,4.87
2024-02-29T05:43:36.679Z,4.27
2024-02-29T05:46:06.944Z,5.23
2024-02-29T05:48:36.611Z,4.00
2024-02-29T05:51:08.607Z,4.50
2024-02-29T05:53:38.940Z,4.47
2024-02-29T05:56:07.082Z,5.30
2024-02-29T05:58:36.293Z,4.97
2024-02-29T06:01:04.733Z,5.60
2024-02-29T06:03:32.944Z,4.90
2024-02-29T06:06:06.692Z,5.37
2024-02-29T06:08:36.264Z,4.27
2024-02-29T06:11:04.335Z,4.13
2024-02-29T06:13:36.829Z,4.13
2024-02-29T06:16:05.475Z,4.00
2024-02-29T06:18:33.456Z,5.33
2024-02-29T06:21:03.058Z,3.90
2024-02-29T06:23:31.158Z,4.00
2024-02-29T06:26:01.323Z,4.10
2024-02-29T06:28:31.810Z,3.90
2024-02-29T06:31:00.020Z,3.90
2024-02-29T06:33:27.998Z,3.93
2024-02-29T06:35:56.121Z,5.20
2024-02-29T06:38:24.121Z,10.43
2024-02-29T06:40:52.663Z,8.43
2024-02-29T06:43:22.205Z,6.53
2024-02-29T06:45:51.518Z,5.10
2024-02-29T06:48:21.168Z,5.43
2024-02-29T06:50:50.686Z,5.13
2024-02-29T06:53:20.098Z,4.10
2024-02-29T06:55:48.045Z,4.53
2024-02-29T06:58:16.738Z,4.60
2024-02-29T07:00:46.643Z,4.50
2024-02-29T07:03:14.792Z,5.10
2024-02-29T07:05:42.696Z,5.23
2024-02-29T07:08:14.154Z,4.77
2024-02-29T07:10:43.617Z,20.40
2024-02-29T07:13:14.212Z,9.80
2024-02-29T07:15:42.298Z,6.17
2024-02-29T07:18:12.646Z,4.97
2024-02-29T07:20:40.702Z,5.00
2024-02-29T07:23:08.625Z,4.47
2024-02-29T07:25:36.656Z,4.13
2024-02-29T07:28:05.417Z,4.63
2024-02-29T07:30:33.717Z,4.30
2024-02-29T07:33:02.944Z,5.13
2024-02-29T07:35:33.098Z,3.93
2024-02-29T07:38:01.157Z,5.47
2024-02-29T07:40:31.689Z,6.47
2024-02-29T07:43:02.015Z,15.30
2024-02-29T07:45:30.094Z,12.23
2024-02-29T07:48:01.383Z,5.67
2024-02-29T07:50:33.495Z,4.87
2024-02-29T07:53:01.407Z,5.33
2024-02-29T07:55:29.506Z,4.93
2024-02-29T07:57:58.996Z,5.10
2024-02-29T08:00:27.497Z,5.60
2024-02-29T08:02:56.045Z,6.13
2024-02-29T08:05:25.791Z,6.70
2024-02-29T08:07:55.107Z,5.27
2024-02-29T08:10:23.246Z,6.17
2024-02-29T08:12:52.444Z,7.07
2024-02-29T08:15:20.460Z,8.03
2024-02-29T08:17:50.800Z,25.80
2024-02-29T08:20:21.310Z,13.43
2024-02-29T08:22:54.943Z,9.90
2024-02-29T08:25:27.830Z,8.57
2024-02-29T08:27:56.127Z,10.07
2024-02-29T08:30:26.647Z,9.03
2024-02-29T08:32:54.750Z,8.87
2024-02-29T08:35:24.429Z,8.53
2024-02-29T08:37:54.528Z,9.27
2024-02-29T08:40:26.614Z,8.87
2024-02-29T08:42:54.799Z,8.93
2024-02-29T08:45:23.814Z,10.60
2024-02-29T08:47:52.465Z,9.33
2024-02-29T08:50:20.466Z,22.27
2024-02-29T08:52:51.046Z,21.40
2024-02-29T08:55:21.185Z,11.80
2024-02-29T08:57:50.638Z,10.87
2024-02-29T09:00:21.778Z,11.43
2024-02-29T09:02:53.991Z,11.77
2024-02-29T09:05:22.121Z,10.83
2024-02-29T09:07:50.738Z,12.40
2024-02-29T09:10:19.207Z,13.33
2024-02-29T09:12:47.890Z,12.20
2024-02-29T09:15:17.428Z,12.97
2024-02-29T09:17:45.786Z,13.27
2024-02-29T09:20:13.890Z,13.70
2024-02-29T09:22:41.929Z,14.20
2024-02-29T09:25:11.203Z,36.83
2024-02-29T09:27:39.479Z,17.37
2024-02-29T09:30:08.575Z,14.53
2024-02-29T09:32:38.238Z,15.70
2024-02-29T09:35:06.821Z,14.93
2024-02-29T09:37:35.113Z,13.70
2024-02-29T09:40:05.406Z,36.83
2024-02-29T09:42:37.769Z,16.50
2024-02-29T09:45:12.735Z,14.27
2024-02-29T09:47:44.580Z,14.77
2024-02-29T09:50:13.213Z,14.67
2024-02-29T09:52:41.157Z,14.60
2024-02-29T09:55:14.618Z,15.00
2024-02-29T09:57:44.553Z,14.90
2024-02-29T10:00:13.850Z,14.20
2024-02-29T10:02:43.595Z,14.30
2024-02-29T10:05:12.992Z,12.80
2024-02-29T10:07:47.064Z,14.50
2024-02-29T10:10:15.921Z,14.07
2024-02-29T10:12:44.663Z,16.07
2024-02-29T10:15:13.242Z,15.23
2024-02-29T10:17:41.969Z,15.20
2024-02-29T10:20:12.633Z,15.83
2024-02-29T10:22:47.675Z,15.37
2024-02-29T10:25:17.608Z,14.17
2024-02-29T10:27:45.976Z,16.60
2024-02-29T10:30:15.680Z,14.30
2024-02-29T10:32:44.203Z,14.00
2024-02-29T10:35:19.825Z,16.23
2024-02-29T10:37:50.391Z,15.43
2024-02-29T10:40:18.529Z,13.70
2024-02-29T10:42:52.430Z,16.50
2024-02-29T10:45:23.114Z,13.87
2024-02-29T10:47:57.939Z,16.30
2024-02-29T10:50:27.623Z,15.47
2024-02-29T10:53:10.535Z,16.23
2024-02-29T10:55:50.417Z,15.13
2024-02-29T10:58:24.705Z,15.23
2024-02-29T11:00:53.031Z,15.37
2024-02-29T11:03:23.171Z,17.20
2024-02-29T11:05:51.895Z,15.97
2024-02-29T11:08:23.120Z,16.40
2024-02-29T11:10:51.271Z,15.50
2024-02-29T11:13:20.164Z,15.77
2024-02-29T11:15:52.006Z,15.57
2024-02-29T11:18:23.958Z,15.27
2024-02-29T11:21:05.339Z,14.87
2024-02-29T11:23:37.341Z,15.43
2024-02-29T11:26:11.746Z,15.57
2024-02-29T11:28:40.783Z,14.73
2024-02-29T11:31:17.906Z,14.13
2024-02-29T11:33:47.348Z,15.93
2024-02-29T11:36:16.212Z,14.63
2024-02-29T11:38:45.928Z,14.10
2024-02-29T11:41:18.008Z,13.83
2024-02-29T11:43:46.854Z,15.37
2024-02-29T11:46:15.268Z,14.70
2024-02-29T11:48:47.302Z,13.67
2024-02-29T11:51:15.569Z,14.50
2024-02-29T11:53:44.995Z,13.60
2024-02-29T11:56:15.973Z,13.47
2024-02-29T11:58:47.415Z,14.20
2024-02-29T12:01:16.068Z,13.20
2024-02-29T12:03:46.290Z,11.97
2024-02-29T12:06:14.884Z,13.40
2024-02-29T12:08:46.680Z,12.87
2024-02-29T12:11:15.547Z,13.20
2024-02-29T12:13:44.613Z,12.90
2024-02-29T12:16:12.864Z,13.17
2024-02-29T12:18:40.979Z,11.90
2024-02-29T12:21:10.734Z,12.10
2024-02-29T12:23:41.301Z,10.90
2024-02-29T12:26:11.960Z,11.30
2024-02-29T12:28:42.101Z,11.60
2024-02-29T12:31:11.180Z,10.90
2024-02-29T12:33:40.329Z,10.77
2024-02-29T12:36:09.101Z,10.60
2024-02-29T12:38:38.219Z,10.27
2024-02-29T12:41:07.619Z,9.80
2024-02-29T12:43:39.811Z,10.67
2024-02-29T12:46:09.087Z,10.50
2024-02-29T12:48:37.039Z,10.73
2024-02-29T12:51:10.472Z,10.90
2024-02-29T12:53:38.696Z,11.70
2024-02-29T12:56:06.886Z,11.10
2024-02-29T12:58:35.034Z,9.00
2024-02-29T13:01:08.345Z,10.50
2024-02-29T13:03:37.071Z,10.73
2024-02-29T13:06:05.426Z,10.30
2024-02-29T13:08:34.615Z,11.73
2024-02-29T13:11:02.513Z,11.13
2024-02-29T13:13:30.540Z,10.27
2024-02-29T13:15:58.572Z,10.43
2024-02-29T13:18:28.361Z,10.47
2024-02-29T13:20:58.044Z,9.50
2024-02-29T13:23:25.936Z,9.70
2024-02-29T13:25:54.298Z,9.23
2024-02-29T13:28:22.564Z,10.30
2024-02-29T13:30:50.605Z,10.27
2024-02-29T13:33:21.171Z,11.03
2024-02-29T13:35:50.756Z,9.87
2024-02-29T13:38:18.745Z,8.40
2024-02-29T13:40:49.433Z,8.27
2024-02-29T13:43:17.513Z,8.83
2024-02-29T13:45:45.637Z,7.63
2024-02-29T13:48:16.759Z,7.70
2024-02-29T13:50:44.783Z,7.63
2024-02-29T13:53:14.499Z,10.10
2024-02-29T13:55:44.329Z,8.77
2024-02-29T13:58:16.113Z,9.20
2024-02-29T14:00:45.082Z,8.93
2024-02-29T14:03:13.777Z,8.10
2024-02-29T14:05:41.804Z,9.10
2024-02-29T14:08:10.126Z,8.60
2024-02-29T14:10:39.748Z,8.77
2024-02-29T14:13:08.949Z,9.30
2024-02-29T14:15:38.167Z,8.53
2024-02-29T14:18:08.419Z,8.77
2024-02-29T14:20:36.400Z,9.00
2024-02-29T14:23:05.016Z,8.07
2024-02-29T14:25:33.043Z,9.00
2024-02-29T14:28:02.550Z,8.07
2024-02-29T14:30:33.038Z,8.80
2024-02-29T14:33:01.238Z,9.13
2024-02-29T14:35:29.234Z,8.20
2024-02-29T14:37:58.306Z,8.57
2024-02-29T14:40:26.765Z,7.93
2024-02-29T14:42:54.826Z,8.03
2024-02-29T14:45:24.136Z,9.33
2024-02-29T14:47:52.349Z,6.80
2024-02-29T14:50:20.526Z,9.83
2024-02-29T14:52:48.561Z,7.47
2024-02-29T14:55:16.797Z,7.87
2024-02-29T14:57:44.976Z,7.80
2024-02-29T15:00:15.032Z,7.40
2024-02-29T15:02:44.857Z,7.33
2024-02-29T15:05:13.993Z,8.83
2024-02-29T15:07:43.247Z,7.90
2024-02-29T15:10:12.547Z,8.50
2024-02-29T15:12:41.479Z,8.20
2024-02-29T15:15:10.734Z,8.90
2024-02-29T15:17:39.149Z,9.67
2024-02-29T15:20:11.199Z,9.60
2024-02-29T15:22:40.775Z,10.00
2024-02-29T15:25:16.279Z,10.30
2024-02-29T15:27:47.400Z,10.13
2024-02-29T15:30:15.863Z,9.60
2024-02-29T15:32:43.896Z,10.50
2024-02-29T15:35:14.257Z,11.17
2024-02-29T15:37:42.262Z,9.87
2024-02-29T15:40:11.925Z,10.70
2024-02-29T15:42:42.645Z,10.70
2024-02-29T15:45:13.896Z,9.70
2024-02-29T15:47:42.111Z,10.87
2024-02-29T15:50:10.381Z,10.13
2024-02-29T15:52:39.806Z,9.27
2024-02-29T15:55:11.067Z,10.00
2024-02-29T15:57:39.498Z,11.50
2024-02-29T16:00:08.629Z,11.63
2024-02-29T16:02:40.472Z,9.57
2024-02-29T16:05:09.026Z,10.20
2024-02-29T16:07:37.045Z,10.23
2024-02-29T16:10:07.068Z,10.07
2024-02-29T16:12:36.072Z,10.87
2024-02-29T16:15:10.040Z,10.17
2024-02-29T16:17:38.038Z,10.50
2024-02-29T16:20:06.745Z,10.47
2024-02-29T16:22:34.818Z,9.97
2024-02-29T16:25:02.939Z,11.03
2024-02-29T16:27:32.367Z,10.67
2024-02-29T16:30:00.453Z,10.13
2024-02-29T16:32:30.897Z,10.60
2024-02-29T16:35:01.651Z,9.90
2024-02-29T16:37:32.195Z,9.90
2024-02-29T16:40:01.233Z,9.83
2024-02-29T16:42:29.538Z,11.00
2024-02-29T16:44:58.971Z,9.00
2024-02-29T16:47:29.054Z,9.10
2024-02-29T16:49:58.084Z,10.07
2024-02-29T16:52:29.030Z,9.07
2024-02-29T16:54:57.172Z,10.13
2024-02-29T16:57:25.964Z,9.20
2024-02-29T16:59:54.222Z,8.97
2024-02-29T17:02:24.004Z,9.00
2024-02-29T17:04:53.359Z,9.00
2024-02-29T17:07:24.976Z,10.40
2024-02-29T17:09:59.914Z,10.50
2024-02-29T17:12:28.400Z,9.43
2024-02-29T17:14:57.524Z,9.17
2024-02-29T17:17:30.266Z,9.77
2024-02-29T17:19:58.308Z,9.70
2024-02-29T17:22:28.658Z,9.17
2024-02-29T17:24:56.860Z,9.47
2024-02-29T17:27:26.407Z,10.00
2024-02-29T17:29:56.655Z,8.63
2024-02-29T17:32:26.271Z,10.60
2024-02-29T17:34:58.824Z,9.57
2024-02-29T17:37:30.694Z,10.07
2024-02-29T17:40:01.222Z,10.30
2024-02-29T17:42:29.505Z,11.03
2024-02-29T17:44:57.484Z,11.70
2024-02-29T17:47:27.963Z,10.87
2024-02-29T17:49:56.174Z,10.13
2024-02-29T17:52:27.197Z,10.33
2024-02-29T17:54:58.735Z,10.13
2024-02-29T17:57:27.039Z,11.77
2024-02-29T17:59:55.249Z,11.60
2024-02-29T18:02:23.537Z,12.77
2024-02-29T18:04:52.156Z,11.80
2024-02-29T18:07:20.284Z,12.57
2024-02-29T18:09:49.550Z,11.53
2024-02-29T18:12:20.054Z,12.20
2024-02-29T18:14:48.008Z,10.73
2024-02-29T18:17:16.739Z,11.33
2024-02-29T18:19:44.791Z,12.30
2024-02-29T18:22:12.859Z,11.93
2024-02-29T18:24:41.044Z,11.60
2024-02-29T18:27:12.077Z,11.47
2024-02-29T18:29:40.216Z,10.27
2024-02-29T18:32:10.575Z,11.60
2024-02-29T18:34:40.946Z,10.33
2024-02-29T18:37:08.939Z,10.90
2024-02-29T18:39:37.599Z,11.00
2024-02-29T18:42:05.790Z,11.67
2024-02-29T18:44:36.448Z,10.63
2024-02-29T18:47:05.658Z,11.20
2024-02-29T18:49:33.646Z,11.27
2024-02-29T18:52:01.945Z,11.70
2024-02-29T18:54:29.979Z,10.00
2024-02-29T18:56:58.032Z,11.33
2024-02-29T18:59:29.118Z,10.60
2024-02-29T19:01:58.892Z,11.27
2024-02-29T19:04:28.234Z,11.30
2024-02-29T19:06:56.341Z,12.40
2024-02-29T19:09:26.827Z,12.60
2024-02-29T19:11:56.962Z,11.83
2024-02-29T19:14:24.952Z,11.80
2024-02-29T19:16:54.335Z,11.10
2024-02-29T19:19:23.747Z,11.23
2024-02-29T19:21:51.904Z,13.70
2024-02-29T19:24:19.989Z,14.53
2024-02-29T19:26:49.446Z,11.37
2024-02-29T19:29:17.300Z,12.27
2024-02-29T19:31:49.077Z,12.83
2024-02-29T19:34:24.099Z,11.60
2024-02-29T19:36:52.331Z,10.17
2024-02-29T19:39:20.167Z,11.80
2024-02-29T19:41:48.370Z,10.50
2024-02-29T19:44:16.284Z,11.10
2024-02-29T19:46:45.368Z,10.57
2024-02-29T19:49:13.544Z,11.80
2024-02-29T19:51:43.769Z,12.20
2024-02-29T19:54:12.313Z,11.00
2024-02-29T19:56:40.764Z,10.77
2024-02-29T19:59:08.981Z,11.20
2024-02-29T20:01:37.974Z,10.20
2024-02-29T20:04:08.466Z,11.40
2024-02-29T20:06:36.488Z,9.83
2024-02-29T20:09:06.237Z,10.83
2024-02-29T20:11:36.496Z,11.37
2024-02-29T20:14:05.501Z,10.97
2024-02-29T20:16:33.592Z,11.30
2024-02-29T20:19:01.736Z,10.93
2024-02-29T20:21:29.937Z,11.43
2024-02-29T20:23:57.993Z,10.60
2024-02-29T20:26:27.488Z,11.00
2024-02-29T20:28:55.487Z,10.03
2024-02-29T20:31:23.513Z,9.87
2024-02-29T20:33:52.667Z,10.50
2024-02-29T20:36:23.201Z,10.10
2024-02-29T20:38:52.846Z,10.20
2024-02-29T20:41:21.290Z,9.43
2024-02-29T20:43:50.653Z,10.23
2024-02-29T20:46:18.797Z,9.23
2024-02-29T20:48:49.234Z,10.83
2024-02-29T20:51:17.421Z,10.90
2024-02-29T20:53:45.372Z,11.60
2024-02-29T20:56:14.494Z,10.77
2024-02-29T20:58:43.769Z,10.47
2024-02-29T21:01:13.445Z,9.87
2024-02-29T21:03:41.497Z,8.90
2024-02-29T21:06:09.617Z,8.90
2024-02-29T21:08:38.751Z,10.70
2024-02-29T21:11:06.808Z,9.77
2024-02-29T21:13:37.120Z,10.50
2024-02-29T21:16:06.368Z,10.07
2024-02-29T21:18:36.970Z,9.03
2024-02-29T21:21:06.072Z,16.27
2024-02-29T21:23:34.961Z,17.23
2024-02-29T21:26:04.754Z,15.83
2024-02-29T21:28:35.278Z,13.63
2024-02-29T21:31:03.845Z,13.23
2024-02-29T21:33:32.301Z,9.97
2024-02-29T21:36:01.525Z,9.53
2024-02-29T21:38:29.733Z,9.40
2024-02-29T21:40:58.252Z,9.70
2024-02-29T21:43:26.994Z,10.40
2024-02-29T21:45:55.133Z,11.93
2024-02-29T21:48:23.376Z,10.30
2024-02-29T21:50:53.446Z,11.53
2024-02-29T21:53:23.540Z,10.60
2024-02-29T21:55:53.888Z,10.20
2024-02-29T21:58:22.217Z,10.10
2024-02-29T22:00:50.307Z,9.10
2024-02-29T22:03:18.411Z,10.07
2024-02-29T22:05:46.520Z,9.60
2024-02-29T22:08:14.371Z,9.00
2024-02-29T22:10:46.608Z,8.77
2024-02-29T22:13:17.750Z,9.20
2024-02-29T22:15:48.046Z,10.30
2024-02-29T22:18:16.458Z,10.30
2024-02-29T22:20:46.766Z,9.33
2024-02-29T22:23:15.097Z,10.43
2024-02-29T22:25:44.322Z,9.53
2024-02-29T22:28:13.471Z,9.67
2024-02-29T22:30:43.995Z,8.60
2024-02-29T22:33:12.816Z,8.83
2024-02-29T22:35:41.308Z,9.50
2024-02-29T22:38:09.250Z,8.47
2024-02-29T22:40:37.301Z,9.10
2024-02-29T22:43:06.938Z,9.10
2024-02-29T22:45:34.868Z,11.30
2024-02-29T22:48:03.229Z,10.30
2024-02-29T22:50:31.442Z,10.20
2024-02-29T22:52:59.513Z,9.73
2024-02-29T22:55:27.533Z,8.87
2024-02-29T22:57:55.874Z,10.80
2024-02-29T23:00:31.497Z,9.77
2024-02-29T23:02:59.801Z,9.30
2024-02-29T23:05:27.848Z,10.73
2024-02-29T23:07:55.919Z,8.80
2024-02-29T23:10:24.541Z,10.00
2024-02-29T23:12:52.762Z,10.17
2024-02-29T23:15:23.760Z,9.90
2024-02-29T23:17:56.192Z,11.07
2024-02-29T23:20:24.615Z,10.87
2024-02-29T23:22:56.105Z,9.20
2024-02-29T23:25:25.378Z,10.00
2024-02-29T23:27:53.996Z,10.80
2024-02-29T23:30:22.247Z,10.40
2024-02-29T23:32:50.378Z,10.00
2024-02-29T23:35:20.108Z,8.80
2024-02-29T23:37:48.195Z,10.37
2024-02-29T23:40:17.368Z,10.07
2024-02-29T23:42:46.971Z,9.10
2024-02-29T23:45:16.337Z,9.33
2024-02-29T23:47:45.287Z,9.13
2024-02-29T23:50:13.345Z,9.33
2024-02-29T23:52:42.748Z,10.10
2024-02-29T23:55:11.423Z,9.70
2024-02-29T23:57:39.509Z,8.50
